Time;durP1;ratioP1;P1;durP2;ratioP2;P2;SDS_P1;SDS_P2;PMS_P1;PMS_P2;Temp;Humidity;BMP_temperature;BMP_pressure;BME280_temperature;BME280_humidity;BME280_pressure;Samples;Min_cycle;Max_cycle;Signal;HPM_P1;HPM_P2
2022/04/28 00:02:11;;;;;;;15.93;8.65;;;;;;;;;;4999638;28;20034;-65
2022/04/28 00:04:36;;;;;;;19.70;8.90;;;;;;;;;;5001479;28;20070;-65
2022/04/28 00:07:01;;;;;;;17.00;8.80;;;;;;;;;;5001305;28;20090;-65
2022/04/28 00:09:27;;;;;;;13.57;8.48;;;;;;;;;;5001604;28;20213;-65
2022/04/28 00:11:54;;;;;;;18.27;9.98;;;;;;;;;;5001018;28;20268;-65
2022/04/28 00:14:20;;;;;;;16.65;9.30;;;;;;;;;;5003533;28;20169;-65
2022/04/28 00:16:48;;;;;;;16.95;9.40;;;;;;;;;;5020475;28;20037;-65
2022/04/28 00:19:13;;;;;;;14.38;9.05;;;;;;;;;;5004620;28;20448;-64
2022/04/28 00:21:39;;;;;;;18.02;9.15;;;;;;;;;;5005708;28;20025;-65
2022/04/28 00:24:04;;;;;;;17.27;9.30;;;;;;;;;;5019430;28;20489;-66
2022/04/28 00:26:30;;;;;;;23.35;10.75;;;;;;;;;;5014835;28;20056;-66
2022/04/28 00:28:57;;;;;;;19.75;9.70;;;;;;;;;;5004997;28;20325;-65
2022/04/28 00:31:23;;;;;;;17.55;10.32;;;;;;;;;;5005160;28;20230;-65
2022/04/28 00:33:48;;;;;;;21.35;9.88;;;;;;;;;;5004717;28;20122;-65
2022/04/28 00:36:14;;;;;;;14.70;9.35;;;;;;;;;;5004610;28;20147;-66
2022/04/28 00:38:39;;;;;;;18.60;10.13;;;;;;;;;;5005046;28;20355;-65
2022/04/28 00:41:06;;;;;;;25.48;10.63;;;;;;;;;;5019531;28;20577;-65
2022/04/28 00:43:49;;;;;;;20.08;11.00;;;;;;;;;;5003442;28;20025;-65
2022/04/28 00:46:14;;;;;;;24.67;13.25;;;;;;;;;;5004568;28;20838;-64
2022/04/28 00:51:23;;;;;;;19.35;11.85;;;;;;;;;;5004872;28;20033;-65
2022/04/28 00:53:50;;;;;;;21.60;12.10;;;;;;;;;;5004708;28;20075;-65
2022/04/28 00:56:16;;;;;;;21.95;11.73;;;;;;;;;;5004255;28;20065;-65
2022/04/28 00:58:41;;;;;;;19.60;11.27;;;;;;;;;;5005745;28;20071;-65
2022/04/28 01:01:07;;;;;;;18.45;10.48;;;;;;;;;;5004913;28;20475;-65
2022/04/28 01:03:38;;;;;;;19.92;11.25;;;;;;;;;;5004855;28;20064;-65
2022/04/28 01:06:03;;;;;;;21.65;10.02;;;;;;;;;;5003708;28;20032;-65
2022/04/28 01:08:28;;;;;;;21.25;11.27;;;;;;;;;;5004739;28;20226;-65
2022/04/28 01:10:57;;;;;;;21.75;12.63;;;;;;;;;;5003192;28;20032;-65
2022/04/28 01:13:22;;;;;;;24.45;12.70;;;;;;;;;;5004827;28;20219;-64
2022/04/28 01:15:48;;;;;;;23.92;12.40;;;;;;;;;;5019185;28;20103;-66
2022/04/28 01:18:14;;;;;;;24.92;12.98;;;;;;;;;;5004199;28;20698;-65
2022/04/28 01:20:42;;;;;;;21.58;12.35;;;;;;;;;;5003739;28;20032;-65
2022/04/28 01:23:11;;;;;;;22.17;12.30;;;;;;;;;;5003731;28;20029;-66
2022/04/28 01:25:36;;;;;;;25.77;11.68;;;;;;;;;;5018807;28;20135;-66
2022/04/28 01:28:04;;;;;;;21.13;11.20;;;;;;;;;;5004307;28;20118;-65
2022/04/28 01:30:29;;;;;;;21.10;11.13;;;;;;;;;;5004278;28;20128;-66
2022/04/28 01:32:56;;;;;;;21.67;10.98;;;;;;;;;;5004381;28;20033;-66
2022/04/28 01:35:22;;;;;;;20.95;11.40;;;;;;;;;;5001856;28;20029;-65
2022/04/28 01:37:49;;;;;;;16.60;10.55;;;;;;;;;;5002312;28;20387;-66
2022/04/28 01:40:16;;;;;;;21.05;11.32;;;;;;;;;;5001218;28;20037;-65
2022/04/28 01:42:42;;;;;;;18.05;10.60;;;;;;;;;;5004287;28;20036;-65
2022/04/28 01:45:08;;;;;;;22.02;10.40;;;;;;;;;;5003501;28;20223;-66
2022/04/28 01:47:37;;;;;;;18.58;9.95;;;;;;;;;;5018208;28;20276;-65
2022/04/28 01:50:03;;;;;;;20.10;10.82;;;;;;;;;;5000515;28;20533;-65
2022/04/28 01:55:15;;;;;;;16.63;10.18;;;;;;;;;;5018055;28;20092;-64
2022/04/28 01:57:43;;;;;;;22.85;10.35;;;;;;;;;;5003987;28;20031;-66
2022/04/28 02:00:09;;;;;;;19.52;10.50;;;;;;;;;;5004447;28;20407;-65
2022/04/28 02:02:37;;;;;;;17.63;9.88;;;;;;;;;;5003421;28;20250;-65
2022/04/28 02:05:03;;;;;;;23.95;10.90;;;;;;;;;;5003759;28;20115;-65
2022/04/28 02:07:30;;;;;;;14.40;9.40;;;;;;;;;;5003137;28;20037;-64
2022/04/28 02:09:56;;;;;;;20.02;10.73;;;;;;;;;;5003736;28;20234;-65
2022/04/28 02:12:22;;;;;;;22.48;10.98;;;;;;;;;;5003724;28;20036;-65
2022/04/28 02:14:50;;;;;;;21.88;11.00;;;;;;;;;;5003533;28;20586;-65
2022/04/28 02:17:19;;;;;;;19.70;10.70;;;;;;;;;;5002986;28;20205;-65
2022/04/28 02:19:45;;;;;;;18.27;10.07;;;;;;;;;;5003328;28;20423;-65
2022/04/28 02:22:11;;;;;;;19.60;10.93;;;;;;;;;;5012290;28;20044;-66
2022/04/28 02:24:36;;;;;;;24.92;16.13;;;;;;;;;;5003651;28;20529;-67
2022/04/28 02:27:01;;;;;;;22.92;12.80;;;;;;;;;;5003953;28;20230;-65
2022/04/28 02:29:27;;;;;;;20.40;12.85;;;;;;;;;;5002623;28;20672;-66
2022/04/28 02:31:55;;;;;;;20.05;11.48;;;;;;;;;;5003695;28;20610;-66
2022/04/28 02:34:22;;;;;;;18.58;11.63;;;;;;;;;;5002546;28;20797;-65
2022/04/28 02:36:48;;;;;;;24.10;12.15;;;;;;;;;;5002792;28;20076;-65
2022/04/28 02:39:14;;;;;;;16.15;10.35;;;;;;;;;;5002726;28;20037;-65
2022/04/28 02:41:40;;;;;;;16.80;10.75;;;;;;;;;;5002645;28;20410;-65
2022/04/28 02:44:08;;;;;;;17.00;10.13;;;;;;;;;;5002453;28;20044;-65
2022/04/28 02:46:33;;;;;;;20.85;10.95;;;;;;;;;;5001120;28;20109;-65
2022/04/28 02:48:59;;;;;;;20.35;10.40;;;;;;;;;;5018082;28;20132;-66
2022/04/28 02:51:24;;;;;;;16.52;10.00;;;;;;;;;;5011250;28;20048;-66
2022/04/28 02:53:50;;;;;;;29.08;14.90;;;;;;;;;;5002310;28;20037;-65
2022/04/28 02:56:15;;;;;;;22.38;13.45;;;;;;;;;;5002433;28;20072;-65
2022/04/28 02:58:40;;;;;;;20.30;12.13;;;;;;;;;;5002708;28;20056;-65
2022/04/28 03:01:08;;;;;;;18.88;11.52;;;;;;;;;;5002598;28;20047;-65
2022/04/28 03:03:33;;;;;;;20.27;12.20;;;;;;;;;;5017231;28;20670;-65
2022/04/28 03:11:29;;;;;;;18.65;10.95;;;;;;;;;;5002373;28;20243;-65
2022/04/28 03:13:56;;;;;;;21.05;11.23;;;;;;;;;;5016960;28;20045;-65
2022/04/28 03:16:21;;;;;;;20.95;10.93;;;;;;;;;;5002184;28;20135;-65
2022/04/28 03:18:47;;;;;;;21.48;11.68;;;;;;;;;;5002228;28;20047;-65
2022/04/28 03:21:13;;;;;;;18.20;11.20;;;;;;;;;;5001670;28;20049;-65
2022/04/28 03:23:40;;;;;;;20.75;11.55;;;;;;;;;;5016166;28;20126;-65
2022/04/28 03:26:06;;;;;;;23.67;11.95;;;;;;;;;;5002315;28;20120;-65
2022/04/28 03:28:38;;;;;;;23.08;12.02;;;;;;;;;;5001689;28;20516;-65
2022/04/28 03:31:06;;;;;;;23.23;12.35;;;;;;;;;;5002393;28;20422;-65
2022/04/28 03:33:31;;;;;;;19.27;12.40;;;;;;;;;;4999581;28;20029;-65
2022/04/28 03:35:57;;;;;;;22.52;12.32;;;;;;;;;;5001954;28;20079;-65
2022/04/28 03:38:22;;;;;;;21.83;11.82;;;;;;;;;;5001055;28;20250;-64
2022/04/28 03:40:48;;;;;;;19.25;12.15;;;;;;;;;;5001769;28;20037;-65
2022/04/28 03:43:13;;;;;;;19.27;11.85;;;;;;;;;;5002011;28;20477;-65
2022/04/28 03:45:41;;;;;;;21.63;13.30;;;;;;;;;;5001510;28;20041;-65
2022/04/28 03:48:09;;;;;;;21.27;12.57;;;;;;;;;;5002093;28;20036;-64
2022/04/28 03:50:35;;;;;;;19.75;11.85;;;;;;;;;;5001643;28;20625;-65
2022/04/28 03:53:03;;;;;;;21.98;12.45;;;;;;;;;;5002238;28;20119;-65
2022/04/28 03:55:28;;;;;;;19.35;11.20;;;;;;;;;;5001820;28;20044;-66
2022/04/28 03:57:58;;;;;;;21.42;12.35;;;;;;;;;;5016501;28;20493;-66
2022/04/28 04:00:23;;;;;;;21.88;12.50;;;;;;;;;;5001265;28;20188;-65
2022/04/28 04:02:49;;;;;;;24.35;13.10;;;;;;;;;;5001890;28;20026;-65
2022/04/28 04:05:15;;;;;;;21.63;12.68;;;;;;;;;;5016150;28;20029;-65
2022/04/28 04:07:41;;;;;;;23.67;12.95;;;;;;;;;;4998222;28;20182;-65
2022/04/28 04:10:07;;;;;;;20.80;12.50;;;;;;;;;;5001647;28;20262;-65
2022/04/28 04:12:32;;;;;;;20.67;12.00;;;;;;;;;;5001669;28;20636;-65
2022/04/28 04:14:58;;;;;;;20.77;12.98;;;;;;;;;;5016210;28;20025;-65
2022/04/28 04:17:23;;;;;;;21.38;12.82;;;;;;;;;;5001209;28;20291;-66
2022/04/28 04:19:48;;;;;;;21.27;12.75;;;;;;;;;;5001261;28;20505;-66
2022/04/28 04:22:14;;;;;;;22.00;12.80;;;;;;;;;;5000822;28;20081;-65
2022/04/28 04:24:45;;;;;;;20.38;12.50;;;;;;;;;;4999133;28;20115;-65
2022/04/28 04:27:10;;;;;;;25.60;13.10;;;;;;;;;;5015926;28;20483;-66
2022/04/28 04:29:36;;;;;;;21.52;12.60;;;;;;;;;;5001356;28;20117;-65
2022/04/28 04:32:17;;;;;;;22.30;12.18;;;;;;;;;;5001371;28;20448;-65
2022/04/28 04:34:43;;;;;;;20.27;12.30;;;;;;;;;;5001852;28;20025;-65
2022/04/28 04:37:08;;;;;;;18.55;12.30;;;;;;;;;;5001793;28;20578;-65
2022/04/28 04:39:33;;;;;;;22.33;13.25;;;;;;;;;;5001522;28;21944;-65
2022/04/28 04:41:59;;;;;;;21.42;12.88;;;;;;;;;;4992067;28;20108;-66
2022/04/28 04:44:24;;;;;;;19.60;12.38;;;;;;;;;;5001122;28;20040;-65
2022/04/28 04:46:51;;;;;;;19.88;12.88;;;;;;;;;;5001614;28;20252;-63
2022/04/28 04:49:17;;;;;;;20.75;12.23;;;;;;;;;;4999565;28;20029;-64
2022/04/28 04:51:46;;;;;;;23.23;12.95;;;;;;;;;;5011251;28;20053;-64
2022/04/28 04:54:11;;;;;;;21.40;13.45;;;;;;;;;;4999835;28;20033;-65
2022/04/28 04:56:39;;;;;;;25.20;13.65;;;;;;;;;;5000869;28;20542;-65
2022/04/28 04:59:04;;;;;;;20.95;13.68;;;;;;;;;;4999376;28;20033;-65
2022/04/28 05:01:30;;;;;;;23.33;14.23;;;;;;;;;;5004644;28;20037;-65
2022/04/28 05:03:55;;;;;;;23.25;14.00;;;;;;;;;;5004927;28;20124;-65
2022/04/28 05:06:21;;;;;;;20.88;14.32;;;;;;;;;;5006573;28;20041;-65
2022/04/28 05:08:48;;;;;;;27.25;14.55;;;;;;;;;;5005233;28;20329;-65
2022/04/28 05:11:14;;;;;;;26.90;14.82;;;;;;;;;;5003949;28;20041;-65
2022/04/28 05:13:39;;;;;;;22.58;14.02;;;;;;;;;;5005097;28;20761;-65
2022/04/28 05:16:05;;;;;;;23.67;14.35;;;;;;;;;;5004591;28;20029;-65
2022/04/28 05:18:31;;;;;;;25.20;14.90;;;;;;;;;;5004476;28;22223;-65
2022/04/28 05:20:56;;;;;;;24.95;13.93;;;;;;;;;;5004717;28;20063;-66
2022/04/28 05:23:24;;;;;;;20.80;12.70;;;;;;;;;;5004415;28;20501;-65
2022/04/28 05:25:51;;;;;;;24.60;13.00;;;;;;;;;;5004473;28;20039;-65
2022/04/28 05:28:16;;;;;;;24.75;12.85;;;;;;;;;;5004378;28;20397;-65
2022/04/28 05:30:44;;;;;;;20.67;12.63;;;;;;;;;;5002879;28;20422;-65
2022/04/28 05:33:09;;;;;;;23.85;12.38;;;;;;;;;;5004694;28;20029;-65
2022/04/28 05:35:37;;;;;;;20.25;11.70;;;;;;;;;;4994525;28;20119;-64
2022/04/28 05:38:03;;;;;;;23.77;11.73;;;;;;;;;;5003885;28;20443;-65
2022/04/28 05:40:28;;;;;;;20.35;11.18;;;;;;;;;;5004063;28;20260;-65
2022/04/28 05:45:43;;;;;;;18.38;10.20;;;;;;;;;;5003508;28;20037;-65
2022/04/28 05:48:18;;;;;;;19.45;9.70;;;;;;;;;;5004121;28;20036;-65
2022/04/28 05:50:44;;;;;;;19.73;9.75;;;;;;;;;;5003370;28;20036;-65
2022/04/28 05:53:12;;;;;;;17.15;9.20;;;;;;;;;;5018792;28;20313;-65
2022/04/28 05:55:38;;;;;;;19.45;9.18;;;;;;;;;;5003393;28;20048;-65
2022/04/28 05:58:04;;;;;;;14.73;8.45;;;;;;;;;;5004653;28;20449;-67
2022/04/28 06:00:30;;;;;;;17.92;9.73;;;;;;;;;;5003987;28;20229;-65
2022/04/28 06:02:55;;;;;;;18.60;9.48;;;;;;;;;;5003813;28;20855;-65
2022/04/28 06:05:21;;;;;;;14.60;8.48;;;;;;;;;;5003808;28;20037;-66
2022/04/28 06:07:49;;;;;;;19.90;9.02;;;;;;;;;;5004112;28;20509;-67
2022/04/28 06:10:15;;;;;;;17.73;9.10;;;;;;;;;;5004113;28;20068;-67
2022/04/28 06:12:40;;;;;;;13.93;8.00;;;;;;;;;;5017203;28;20033;-66
2022/04/28 06:15:06;;;;;;;21.00;9.43;;;;;;;;;;5004152;28;20485;-66
2022/04/28 06:17:32;;;;;;;17.90;8.55;;;;;;;;;;5003515;28;20068;-68
2022/04/28 06:19:57;;;;;;;22.20;8.43;;;;;;;;;;5003201;28;20154;-66
2022/04/28 06:22:22;;;;;;;16.88;8.30;;;;;;;;;;5003273;28;20772;-66
2022/04/28 06:24:55;;;;;;;14.90;7.70;;;;;;;;;;5003585;28;20033;-66
2022/04/28 06:27:23;;;;;;;14.02;7.85;;;;;;;;;;5017921;28;20172;-66
2022/04/28 06:29:52;;;;;;;14.45;7.80;;;;;;;;;;5004283;28;20050;-66
2022/04/28 06:32:18;;;;;;;17.77;8.27;;;;;;;;;;5003378;28;20032;-66
2022/04/28 06:34:46;;;;;;;20.42;8.48;;;;;;;;;;5002470;28;20713;-66
2022/04/28 06:37:16;;;;;;;16.92;7.70;;;;;;;;;;5002659;28;20057;-66
2022/04/28 06:39:42;;;;;;;14.60;8.18;;;;;;;;;;5002888;28;20352;-66
2022/04/28 06:42:09;;;;;;;16.60;8.30;;;;;;;;;;5001262;28;20405;-66
2022/04/28 06:44:36;;;;;;;16.42;8.27;;;;;;;;;;5002627;28;20434;-66
2022/04/28 06:47:01;;;;;;;12.85;7.93;;;;;;;;;;5001467;28;20200;-66
2022/04/28 06:49:27;;;;;;;18.63;7.93;;;;;;;;;;5002105;28;20211;-66
2022/04/28 06:51:52;;;;;;;14.90;8.57;;;;;;;;;;5006441;28;20461;-66
2022/04/28 06:54:18;;;;;;;14.75;8.10;;;;;;;;;;5002475;28;20111;-66
2022/04/28 06:56:43;;;;;;;13.85;8.15;;;;;;;;;;5000937;28;20227;-66
2022/04/28 06:59:08;;;;;;;11.95;7.63;;;;;;;;;;5002415;28;20127;-66
2022/04/28 07:01:36;;;;;;;13.27;7.15;;;;;;;;;;5017644;28;20033;-65
2022/04/28 07:04:01;;;;;;;12.48;7.30;;;;;;;;;;5002928;28;20051;-66
2022/04/28 07:06:27;;;;;;;11.75;7.40;;;;;;;;;;5001971;28;20444;-66
2022/04/28 07:08:55;;;;;;;12.65;6.40;;;;;;;;;;5002388;28;20087;-66
2022/04/28 07:11:20;;;;;;;13.43;7.13;;;;;;;;;;5002420;28;20165;-66
2022/04/28 07:13:46;;;;;;;15.57;6.40;;;;;;;;;;5002990;28;20515;-66
2022/04/28 07:16:11;;;;;;;13.80;6.38;;;;;;;;;;4999963;28;20269;-64
2022/04/28 07:18:36;;;;;;;13.27;6.30;;;;;;;;;;5002262;28;20036;-63
2022/04/28 07:21:02;;;;;;;14.00;5.38;;;;;;;;;;5001839;28;20573;-66
2022/04/28 07:23:28;;;;;;;16.38;5.85;;;;;;;;;;5002154;28;20264;-67
2022/04/28 07:25:53;;;;;;;12.35;5.05;;;;;;;;;;5002282;28;20179;-65
2022/04/28 07:28:19;;;;;;;9.50;4.57;;;;;;;;;;5000219;28;20115;-66
2022/04/28 07:30:46;;;;;;;10.40;5.15;;;;;;;;;;5001309;28;20037;-65
2022/04/28 07:33:12;;;;;;;9.93;4.45;;;;;;;;;;5001602;28;20091;-66
2022/04/28 07:35:38;;;;;;;8.57;4.10;;;;;;;;;;5002090;28;20033;-66
2022/04/28 07:38:03;;;;;;;11.35;3.60;;;;;;;;;;5001612;28;20567;-67
2022/04/28 07:40:29;;;;;;;11.90;3.65;;;;;;;;;;5000238;28;20183;-67
2022/04/28 07:42:58;;;;;;;7.85;3.78;;;;;;;;;;5000378;28;20176;-67
2022/04/28 07:45:23;;;;;;;10.23;3.38;;;;;;;;;;5001928;28;20041;-66
2022/04/28 07:47:49;;;;;;;12.20;3.72;;;;;;;;;;5002203;28;20037;-66
2022/04/28 07:50:17;;;;;;;9.55;3.15;;;;;;;;;;4988435;28;20029;-66
2022/04/28 07:52:50;;;;;;;8.63;2.97;;;;;;;;;;5001976;28;20032;-66
2022/04/28 07:55:15;;;;;;;8.50;3.50;;;;;;;;;;5001454;28;20573;-67
2022/04/28 07:57:41;;;;;;;9.70;3.22;;;;;;;;;;4999982;28;20119;-66
2022/04/28 08:00:07;;;;;;;8.70;3.00;;;;;;;;;;5001083;28;20025;-66
2022/04/28 08:02:37;;;;;;;10.52;3.22;;;;;;;;;;5002906;28;20766;-66
2022/04/28 08:05:06;;;;;;;10.07;2.88;;;;;;;;;;5001237;28;20214;-65
2022/04/28 08:07:31;;;;;;;8.35;2.90;;;;;;;;;;5000361;28;20382;-65
2022/04/28 08:09:57;;;;;;;8.23;2.83;;;;;;;;;;5001763;28;20126;-66
2022/04/28 08:12:22;;;;;;;8.35;3.05;;;;;;;;;;4999573;28;20020;-65
2022/04/28 08:14:50;;;;;;;10.30;2.92;;;;;;;;;;5001923;28;20042;-65
2022/04/28 08:17:15;;;;;;;8.30;3.30;;;;;;;;;;5001461;28;20951;-65
2022/04/28 08:19:40;;;;;;;7.18;3.00;;;;;;;;;;5001771;28;20071;-65
2022/04/28 08:22:06;;;;;;;10.60;3.13;;;;;;;;;;5000895;28;20445;-65
2022/04/28 08:24:31;;;;;;;9.30;3.08;;;;;;;;;;5001560;28;20025;-65
2022/04/28 08:26:57;;;;;;;8.13;3.10;;;;;;;;;;4999245;28;20029;-65
2022/04/28 08:29:23;;;;;;;10.23;3.00;;;;;;;;;;5000687;28;20021;-64
2022/04/28 08:31:49;;;;;;;6.82;3.30;;;;;;;;;;5001332;28;20973;-65
2022/04/28 08:34:21;;;;;;;7.93;3.40;;;;;;;;;;5000873;28;20409;-65
2022/04/28 08:36:47;;;;;;;7.03;2.90;;;;;;;;;;5005091;28;20172;-65
2022/04/28 08:39:13;;;;;;;9.70;3.20;;;;;;;;;;5004775;28;20052;-65
2022/04/28 08:41:47;;;;;;;7.18;2.95;;;;;;;;;;5005404;28;20111;-65
2022/04/28 08:44:26;;;;;;;7.47;2.97;;;;;;;;;;5002976;28;20210;-66
2022/04/28 08:46:53;;;;;;;8.32;3.13;;;;;;;;;;5004916;28;20355;-65
2022/04/28 08:49:20;;;;;;;6.25;2.80;;;;;;;;;;5004432;28;20090;-65
2022/04/28 08:51:46;;;;;;;9.68;2.92;;;;;;;;;;5003781;28;20119;-64
2022/04/28 08:54:12;;;;;;;7.70;3.00;;;;;;;;;;5006120;28;20106;-65
2022/04/28 08:56:39;;;;;;;10.23;3.45;;;;;;;;;;5003694;28;20037;-65
2022/04/28 08:59:04;;;;;;;14.57;3.20;;;;;;;;;;5004924;28;21609;-64
2022/04/28 09:01:30;;;;;;;7.07;3.15;;;;;;;;;;5004032;28;20025;-64
2022/04/28 09:03:56;;;;;;;12.65;3.67;;;;;;;;;;5004978;28;20156;-64
2022/04/28 09:06:23;;;;;;;9.80;3.55;;;;;;;;;;5004614;28;20138;-64
2022/04/28 09:08:49;;;;;;;9.07;3.40;;;;;;;;;;5004484;28;20537;-64
2022/04/28 09:11:17;;;;;;;9.65;3.55;;;;;;;;;;5004228;28;20043;-64
2022/04/28 09:16:32;;;;;;;5.93;3.08;;;;;;;;;;5004083;28;20030;-65
2022/04/28 09:18:58;;;;;;;11.43;3.70;;;;;;;;;;5004955;28;20427;-64
2022/04/28 09:21:23;;;;;;;7.72;3.20;;;;;;;;;;5004261;28;20083;-65
2022/04/28 09:23:51;;;;;;;7.60;3.10;;;;;;;;;;5004725;28;20025;-64
2022/04/28 09:26:17;;;;;;;8.32;3.10;;;;;;;;;;5002696;28;20037;-64
2022/04/28 09:28:42;;;;;;;7.05;2.95;;;;;;;;;;5002458;28;20033;-65
2022/04/28 09:31:11;;;;;;;8.52;3.80;;;;;;;;;;5004435;28;20218;-66
2022/04/28 09:33:36;;;;;;;7.47;3.20;;;;;;;;;;5004166;28;20532;-63
2022/04/28 09:36:03;;;;;;;6.78;3.20;;;;;;;;;;5003655;28;20017;-62
2022/04/28 09:38:28;;;;;;;9.57;3.40;;;;;;;;;;5001847;28;20654;-62
2022/04/28 09:43:37;;;;;;;6.93;3.22;;;;;;;;;;5006666;28;20033;-62
2022/04/28 09:46:04;;;;;;;9.07;3.40;;;;;;;;;;5003715;28;20114;-62
2022/04/28 09:48:32;;;;;;;9.02;3.40;;;;;;;;;;5003558;28;20450;-62
2022/04/28 09:51:03;;;;;;;8.63;3.30;;;;;;;;;;5003405;28;20032;-62
2022/04/28 09:53:31;;;;;;;8.45;3.15;;;;;;;;;;5003779;28;20059;-63
2022/04/28 09:55:59;;;;;;;8.52;2.85;;;;;;;;;;5003705;28;20385;-62
2022/04/28 09:58:29;;;;;;;6.22;3.00;;;;;;;;;;5003794;28;20525;-62
2022/04/28 10:01:02;;;;;;;10.65;3.13;;;;;;;;;;5002715;28;20083;-64
2022/04/28 10:03:29;;;;;;;8.88;3.35;;;;;;;;;;5003895;28;20523;-64
2022/04/28 10:05:55;;;;;;;11.25;3.00;;;;;;;;;;5018586;28;20120;-64
2022/04/28 10:08:21;;;;;;;6.47;2.97;;;;;;;;;;5003769;28;20386;-64
2022/04/28 10:10:47;;;;;;;6.32;2.67;;;;;;;;;;5002731;28;20493;-64
2022/04/28 10:13:13;;;;;;;6.88;3.20;;;;;;;;;;5018683;28;20033;-62
2022/04/28 10:15:40;;;;;;;7.80;3.00;;;;;;;;;;5002685;28;20086;-62
2022/04/28 10:18:09;;;;;;;8.35;2.95;;;;;;;;;;5001723;28;20592;-62
2022/04/28 10:20:36;;;;;;;10.60;3.08;;;;;;;;;;5003082;28;20492;-63
2022/04/28 10:23:05;;;;;;;8.55;2.75;;;;;;;;;;5000325;28;20156;-61
2022/04/28 10:34:10;;;;;;;10.27;3.40;;;;;;;;;;5000845;28;20128;-62
2022/04/28 10:36:50;;;;;;;8.68;2.80;;;;;;;;;;5001574;28;20986;-63
2022/04/28 10:39:15;;;;;;;6.70;3.20;;;;;;;;;;5002888;28;20177;-63
2022/04/28 10:41:41;;;;;;;9.38;3.38;;;;;;;;;;5003234;28;20099;-66
2022/04/28 10:44:16;;;;;;;10.23;3.55;;;;;;;;;;5000577;28;20086;-62
2022/04/28 10:46:55;;;;;;;6.88;3.45;;;;;;;;;;5000904;28;20045;-64
2022/04/28 10:49:24;;;;;;;12.10;3.90;;;;;;;;;;5002285;28;20140;-66
2022/04/28 10:51:55;;;;;;;12.40;3.75;;;;;;;;;;5001155;28;20059;-66
2022/04/28 10:54:23;;;;;;;12.00;3.70;;;;;;;;;;5002528;28;20141;-66
2022/04/28 10:56:50;;;;;;;9.02;3.28;;;;;;;;;;5002697;28;20358;-64
2022/04/28 10:59:29;;;;;;;11.88;4.10;;;;;;;;;;5002260;28;20021;-63
2022/04/28 11:01:57;;;;;;;12.73;4.40;;;;;;;;;;5002687;28;20024;-64
2022/04/28 11:04:23;;;;;;;8.30;3.53;;;;;;;;;;5000451;28;20107;-64
2022/04/28 11:06:54;;;;;;;7.30;3.67;;;;;;;;;;5002753;28;20029;-64
2022/04/28 11:09:39;;;;;;;8.18;3.65;;;;;;;;;;5002362;28;20505;-64
2022/04/28 11:12:12;;;;;;;10.75;3.95;;;;;;;;;;5000493;28;20677;-64
2022/04/28 11:15:02;;;;;;;6.90;3.40;;;;;;;;;;5002952;28;20220;-64
2022/04/28 11:17:30;;;;;;;8.55;3.47;;;;;;;;;;5001129;28;20828;-63
2022/04/28 11:19:56;;;;;;;7.45;3.55;;;;;;;;;;5001645;28;20044;-64
2022/04/28 11:22:22;;;;;;;10.48;4.20;;;;;;;;;;5001850;28;20026;-63
2022/04/28 11:24:47;;;;;;;8.65;3.75;;;;;;;;;;5002419;28;20033;-64
2022/04/28 11:27:19;;;;;;;10.32;3.80;;;;;;;;;;5001384;28;20017;-64
2022/04/28 11:29:48;;;;;;;10.18;3.85;;;;;;;;;;5002379;28;20148;-66
2022/04/28 11:32:15;;;;;;;9.45;3.80;;;;;;;;;;5015761;28;20047;-61
2022/04/28 11:34:43;;;;;;;13.35;4.20;;;;;;;;;;5001256;28;20033;-62
2022/04/28 11:37:15;;;;;;;8.77;3.53;;;;;;;;;;5000043;28;20107;-62
2022/04/28 11:39:48;;;;;;;11.70;3.90;;;;;;;;;;5001989;28;20083;-62
2022/04/28 11:42:16;;;;;;;11.43;3.70;;;;;;;;;;5001902;28;20063;-62
2022/04/28 11:44:45;;;;;;;8.88;3.75;;;;;;;;;;4999837;28;20052;-62
2022/04/28 11:47:10;;;;;;;10.95;3.60;;;;;;;;;;5001980;28;20149;-62
2022/04/28 11:49:40;;;;;;;6.90;3.45;;;;;;;;;;5001056;28;20552;-62
2022/04/28 11:52:28;;;;;;;12.05;4.20;;;;;;;;;;5001646;28;20108;-62
2022/04/28 11:54:58;;;;;;;9.13;4.00;;;;;;;;;;5015543;28;20448;-62
2022/04/28 11:57:23;;;;;;;11.68;3.80;;;;;;;;;;5001713;28;20746;-62
2022/04/28 11:59:49;;;;;;;10.63;3.58;;;;;;;;;;5001389;28;20028;-61
2022/04/28 12:02:23;;;;;;;9.25;3.72;;;;;;;;;;5001943;28;20604;-61
2022/04/28 12:04:49;;;;;;;9.82;3.53;;;;;;;;;;5001191;28;20114;-62
2022/04/28 12:07:22;;;;;;;8.45;3.28;;;;;;;;;;5001312;28;20259;-61
2022/04/28 12:15:18;;;;;;;7.50;3.30;;;;;;;;;;5001144;28;20410;-64
2022/04/28 12:20:37;;;;;;;9.27;3.40;;;;;;;;;;5001338;28;20681;-64
2022/04/28 12:23:02;;;;;;;6.57;2.85;;;;;;;;;;5001956;28;20208;-64
2022/04/28 12:25:33;;;;;;;9.63;3.13;;;;;;;;;;5001595;28;20025;-64
2022/04/28 12:27:59;;;;;;;11.43;3.20;;;;;;;;;;5000872;28;20045;-62
2022/04/28 12:30:24;;;;;;;9.30;3.67;;;;;;;;;;5001534;28;20438;-63
2022/04/28 12:32:51;;;;;;;7.43;3.33;;;;;;;;;;5000701;28;20028;-62
2022/04/28 12:35:26;;;;;;;9.30;3.10;;;;;;;;;;5001247;28;20498;-61
2022/04/28 12:37:55;;;;;;;8.88;3.00;;;;;;;;;;4999062;28;20587;-61
2022/04/28 12:40:21;;;;;;;7.82;2.97;;;;;;;;;;5000884;28;20033;-63
2022/04/28 12:42:48;;;;;;;10.65;3.00;;;;;;;;;;5001447;28;20884;-63
2022/04/28 12:45:14;;;;;;;6.63;2.85;;;;;;;;;;5001067;28;20125;-63
2022/04/28 12:47:41;;;;;;;8.73;3.38;;;;;;;;;;5000776;28;20451;-62
2022/04/28 12:50:18;;;;;;;8.00;3.08;;;;;;;;;;5000648;28;20686;-62
2022/04/28 12:52:45;;;;;;;7.40;2.78;;;;;;;;;;5000918;28;20041;-62
2022/04/28 12:55:10;;;;;;;6.70;3.30;;;;;;;;;;4985874;28;20475;-61
2022/04/28 12:57:38;;;;;;;7.97;2.60;;;;;;;;;;5000946;28;20198;-61
2022/04/28 13:00:05;;;;;;;5.70;2.53;;;;;;;;;;5004747;28;20060;-61
2022/04/28 13:02:31;;;;;;;7.18;2.75;;;;;;;;;;5001580;28;20039;-62
2022/04/28 13:05:09;;;;;;;9.07;2.50;;;;;;;;;;5000212;28;20057;-62
2022/04/28 13:07:35;;;;;;;9.55;2.70;;;;;;;;;;5001371;28;20033;-63
2022/04/28 13:10:00;;;;;;;8.82;3.17;;;;;;;;;;5000537;28;20117;-63
2022/04/28 13:12:26;;;;;;;6.72;2.58;;;;;;;;;;4998780;28;20116;-62
2022/04/28 13:14:52;;;;;;;8.27;2.70;;;;;;;;;;5000781;28;20116;-61
2022/04/28 13:17:18;;;;;;;7.45;2.50;;;;;;;;;;5004132;28;20029;-61
2022/04/28 13:19:43;;;;;;;8.25;2.80;;;;;;;;;;5000763;28;20489;-62
2022/04/28 13:22:08;;;;;;;8.43;2.63;;;;;;;;;;5002703;28;20384;-62
2022/04/28 13:24:34;;;;;;;6.35;2.50;;;;;;;;;;5003060;28;20087;-62
2022/04/28 13:26:59;;;;;;;8.68;2.90;;;;;;;;;;5003695;28;20130;-63
2022/04/28 13:29:25;;;;;;;7.22;2.60;;;;;;;;;;5004432;28;20056;-62
2022/04/28 13:31:53;;;;;;;5.95;2.50;;;;;;;;;;5007496;28;20056;-62
2022/04/28 13:34:19;;;;;;;8.13;2.60;;;;;;;;;;5003960;28;20509;-62
2022/04/28 13:36:47;;;;;;;13.00;2.72;;;;;;;;;;5017857;28;20226;-62
2022/04/28 13:39:12;;;;;;;8.43;2.55;;;;;;;;;;5008293;28;20060;-60
2022/04/28 13:41:37;;;;;;;7.18;2.30;;;;;;;;;;4986076;28;20598;-62
2022/04/28 13:44:03;;;;;;;6.28;2.40;;;;;;;;;;5002098;28;20036;-62
2022/04/28 13:46:28;;;;;;;7.13;2.40;;;;;;;;;;5003745;28;20090;-63
2022/04/28 13:48:56;;;;;;;11.50;2.55;;;;;;;;;;5003830;28;20213;-61
2022/04/28 13:51:22;;;;;;;10.05;2.55;;;;;;;;;;5001885;28;20033;-62
2022/04/28 13:53:47;;;;;;;6.50;2.30;;;;;;;;;;5001900;28;20713;-62
2022/04/28 13:56:13;;;;;;;5.20;2.33;;;;;;;;;;5004280;28;20391;-62
2022/04/28 13:58:38;;;;;;;8.85;2.67;;;;;;;;;;5003809;28;20174;-62
2022/04/28 14:01:04;;;;;;;8.23;2.40;;;;;;;;;;5002277;28;20032;-62
2022/04/28 14:03:30;;;;;;;7.63;2.47;;;;;;;;;;5001725;28;20029;-62
2022/04/28 14:05:56;;;;;;;8.02;2.70;;;;;;;;;;5003210;28;20806;-62
2022/04/28 14:08:22;;;;;;;5.82;2.67;;;;;;;;;;4990377;28;20087;-61
2022/04/28 14:10:47;;;;;;;8.63;2.55;;;;;;;;;;5003489;28;20041;-61
2022/04/28 14:13:15;;;;;;;7.35;2.55;;;;;;;;;;5003639;28;20030;-61
2022/04/28 14:15:43;;;;;;;7.30;2.33;;;;;;;;;;5001174;28;20025;-62
2022/04/28 14:18:08;;;;;;;4.60;2.30;;;;;;;;;;5003617;28;20033;-62
2022/04/28 14:20:34;;;;;;;7.10;2.67;;;;;;;;;;5002970;28;20068;-62
2022/04/28 14:22:59;;;;;;;6.40;2.55;;;;;;;;;;5003678;28;20030;-61
2022/04/28 14:25:27;;;;;;;8.20;2.80;;;;;;;;;;5006424;28;20273;-62
2022/04/28 14:27:53;;;;;;;8.15;2.80;;;;;;;;;;5001806;28;20017;-61
2022/04/28 14:30:19;;;;;;;7.35;2.80;;;;;;;;;;5007098;28;20033;-61
2022/04/28 14:32:46;;;;;;;6.68;2.50;;;;;;;;;;4999782;28;20425;-62
2022/04/28 14:35:13;;;;;;;7.10;3.00;;;;;;;;;;5000508;28;20029;-60
2022/04/28 14:37:41;;;;;;;7.60;2.50;;;;;;;;;;5002043;28;20448;-61
2022/04/28 14:40:08;;;;;;;11.57;3.10;;;;;;;;;;5003047;28;20338;-62
2022/04/28 14:42:33;;;;;;;7.65;2.70;;;;;;;;;;5000745;28;20140;-62
2022/04/28 14:44:59;;;;;;;8.75;2.95;;;;;;;;;;5003345;28;20105;-62
2022/04/28 14:47:24;;;;;;;6.25;3.00;;;;;;;;;;5002368;28;20075;-61
2022/04/28 14:52:34;;;;;;;8.90;2.65;;;;;;;;;;5001973;28;20064;-62
2022/04/28 14:55:04;;;;;;;8.27;2.67;;;;;;;;;;5000633;28;20445;-62
2022/04/28 14:57:33;;;;;;;8.68;2.83;;;;;;;;;;5002669;28;20158;-62
2022/04/28 15:00:02;;;;;;;7.07;3.13;;;;;;;;;;5001994;28;20045;-62
2022/04/28 15:02:28;;;;;;;9.88;3.20;;;;;;;;;;5002756;28;20032;-62
2022/04/28 15:04:53;;;;;;;9.35;3.00;;;;;;;;;;5001670;28;20270;-63
2022/04/28 15:07:19;;;;;;;9.27;2.92;;;;;;;;;;5000663;28;20152;-61
2022/04/28 15:09:45;;;;;;;8.23;3.30;;;;;;;;;;5001508;28;20501;-64